Time;durP1;ratioP1;P1;durP2;ratioP2;P2;SDS_P1;SDS_P2;PMS_P1;PMS_P2;Temp;Humidity;BMP_temperature;BMP_pressure;BME280_temperature;BME280_humidity;BME280_pressure;Samples;Min_cycle;Max_cycle;Signal;HPM_P1;HPM_P2
2023/01/01 00:01:45;;;;;;;37.50;20.90;;;;;;;9.39;84.55;98728.21;103737;1289;25445;-78
2023/01/01 00:04:14;;;;;;;32.10;19.30;;;;;;;9.42;84.49;98716.61;103267;1297;138876;-78
2023/01/01 00:06:41;;;;;;;33.90;19.70;;;;;;;9.45;84.24;98726.30;103387;1287;25339;-78
2023/01/01 00:11:52;;;;;;;43.00;23.00;;;;;;;9.47;83.82;98731.36;103321;1314;24513;-78
2023/01/01 00:14:19;;;;;;;42.60;26.40;;;;;;;9.46;83.70;98730.89;103154;1300;22484;-78
2023/01/01 00:16:45;;;;;;;50.50;28.00;;;;;;;9.44;83.57;98735.23;103054;1289;138480;-78
2023/01/01 00:19:11;;;;;;;45.70;27.10;;;;;;;9.40;83.45;98732.58;103153;1287;25326;-78
2023/01/01 00:21:38;;;;;;;48.20;26.80;;;;;;;9.36;83.42;98731.59;102989;1312;140037;-78
2023/01/01 00:24:05;;;;;;;44.20;27.50;;;;;;;9.32;83.25;98738.17;103277;1307;22572;-78
2023/01/01 00:26:32;;;;;;;49.40;28.70;;;;;;;9.26;83.30;98741.89;103104;1298;22962;-78
2023/01/01 00:28:58;;;;;;;43.90;25.30;;;;;;;9.21;83.08;98736.59;102969;1292;139737;-78
2023/01/01 00:31:24;;;;;;;43.30;23.30;;;;;;;9.18;83.30;98740.23;102980;1303;24047;-78
2023/01/01 00:33:53;;;;;;;42.80;24.90;;;;;;;9.14;83.33;98738.78;103058;1304;138633;-79
2023/01/01 00:36:21;;;;;;;41.50;23.40;;;;;;;9.10;83.31;98745.67;103004;1290;22482;-78
2023/01/01 00:38:48;;;;;;;36.50;21.90;;;;;;;9.07;83.30;98746.46;103106;1289;24321;-78
2023/01/01 00:41:16;;;;;;;38.20;23.30;;;;;;;9.05;83.28;98750.59;103096;1302;138229;-78
2023/01/01 00:43:42;;;;;;;43.30;24.20;;;;;;;9.03;83.26;98741.55;102985;1313;178364;-78
2023/01/01 00:46:09;;;;;;;43.50;24.40;;;;;;;9.00;83.23;98741.24;102924;1287;140444;-78
2023/01/01 00:48:36;;;;;;;46.70;24.20;;;;;;;8.96;83.10;98745.06;103234;1311;24326;-79
2023/01/01 00:51:03;;;;;;;51.90;27.50;;;;;;;8.91;83.12;98740.23;103141;1314;139581;-78
2023/01/01 00:53:29;;;;;;;49.70;27.30;;;;;;;8.87;83.12;98741.52;103225;1301;25299;-78
2023/01/01 00:55:56;;;;;;;51.00;28.00;;;;;;;8.82;83.28;98739.50;103704;1299;24288;-79
2023/01/01 00:58:23;;;;;;;51.10;28.20;;;;;;;8.77;83.34;98741.84;103046;1305;138569;-78
2023/01/01 01:00:51;;;;;;;56.80;29.90;;;;;;;8.73;83.22;98742.65;103367;1305;23309;-79
2023/01/01 01:03:26;;;;;;;46.10;27.50;;;;;;;8.68;83.34;98741.37;103152;1300;138539;-78
2023/01/01 01:06:01;;;;;;;51.00;28.80;;;;;;;8.64;83.27;98740.48;103186;1313;22594;-79
2023/01/01 01:08:30;;;;;;;53.80;28.50;;;;;;;8.59;83.49;98734.38;103864;1313;24294;-79
2023/01/01 01:11:07;;;;;;;51.70;29.10;;;;;;;8.55;83.44;98739.50;103469;1306;139377;-78
2023/01/01 01:13:33;;;;;;;46.00;25.30;;;;;;;8.50;83.64;98733.66;103041;1291;23106;-78
2023/01/01 01:16:01;;;;;;;46.90;27.50;;;;;;;8.46;83.59;98729.28;104067;1292;138193;-78
2023/01/01 01:18:27;;;;;;;49.40;26.90;;;;;;;8.42;83.59;98735.65;103332;1313;25314;-78
2023/01/01 01:20:53;;;;;;;51.90;27.90;;;;;;;8.37;83.62;98735.39;103805;1291;25213;-78
2023/01/01 01:23:20;;;;;;;49.50;27.80;;;;;;;8.32;83.61;98735.15;104186;1295;138192;-79
2023/01/01 01:25:46;;;;;;;49.60;26.30;;;;;;;8.28;83.84;98732.39;105202;1305;22965;-78
2023/01/01 01:28:13;;;;;;;51.40;27.90;;;;;;;8.23;83.79;98730.35;103221;1294;139171;-78
2023/01/01 01:30:39;;;;;;;51.60;26.50;;;;;;;8.20;83.97;98733.73;105013;1312;22489;-78
2023/01/01 01:33:05;;;;;;;45.10;23.10;;;;;;;8.17;84.18;98740.63;102892;1314;139062;-78
2023/01/01 01:35:32;;;;;;;41.80;20.40;;;;;;;8.16;84.38;98735.29;103010;1302;25236;-78
2023/01/01 01:37:58;;;;;;;34.70;19.20;;;;;;;8.18;84.39;98731.44;103534;1295;22483;-78
2023/01/01 01:40:25;;;;;;;32.10;17.80;;;;;;;8.22;84.62;98732.27;103102;1297;138537;-78
2023/01/01 01:42:51;;;;;;;29.80;15.70;;;;;;;8.27;84.38;98726.56;103342;1313;26172;-78
2023/01/01 01:45:18;;;;;;;25.20;15.00;;;;;;;8.35;84.54;98725.56;103164;1290;139537;-79
2023/01/01 01:47:57;;;;;;;25.90;14.20;;;;;;;8.43;84.11;98723.54;103220;1296;25261;-78
2023/01/01 01:50:24;;;;;;;26.50;14.40;;;;;;;8.51;84.09;98728.89;103046;1313;24041;-78
2023/01/01 01:53:14;;;;;;;27.50;16.40;;;;;;;8.58;83.86;98729.79;103067;1290;138573;-78
2023/01/01 01:55:48;;;;;;;29.20;15.90;;;;;;;8.65;83.55;98727.70;103219;1287;25451;-78
2023/01/01 01:58:15;;;;;;;26.80;16.60;;;;;;;8.69;83.44;98724.07;103167;1313;138447;-78
2023/01/01 02:00:42;;;;;;;29.20;16.70;;;;;;;8.72;83.28;98727.08;103053;1302;22595;-78
2023/01/01 02:03:15;;;;;;;30.10;16.80;;;;;;;8.73;83.09;98725.60;103149;1292;140312;-78
2023/01/01 02:05:42;;;;;;;28.80;15.70;;;;;;;8.74;82.96;98724.38;103278;1292;22199;-78
2023/01/01 02:08:11;;;;;;;26.00;13.80;;;;;;;8.76;82.80;98725.36;103416;1313;22522;-78
2023/01/01 02:10:37;;;;;;;24.70;14.40;;;;;;;8.78;82.66;98722.87;103030;1297;138479;-79
2023/01/01 02:13:03;;;;;;;27.30;14.20;;;;;;;8.82;82.48;98721.23;103102;1305;22518;-78
2023/01/01 02:15:36;;;;;;;23.40;13.30;;;;;;;8.85;82.37;98723.13;103300;1303;138926;-78
2023/01/01 02:18:09;;;;;;;21.70;12.20;;;;;;;8.89;82.03;98723.67;103252;1299;24326;-78
2023/01/01 02:20:52;;;;;;;18.40;10.80;;;;;;;8.94;81.93;98720.77;103063;1291;22529;-78
2023/01/01 02:23:44;;;;;;;17.20;10.80;;;;;;;9.01;81.76;98717.75;102940;1302;138211;-78
2023/01/01 02:26:56;;;;;;;20.00;10.70;;;;;;;9.06;81.74;98717.64;103356;1313;22572;-78
2023/01/01 02:29:35;;;;;;;17.40;9.50;;;;;;;9.11;81.39;98713.48;102689;1314;22530;-78
2023/01/01 02:32:07;;;;;;;21.60;10.50;;;;;;;9.17;81.23;98706.52;102386;1317;24259;-78
2023/01/01 02:34:46;;;;;;;19.60;10.10;;;;;;;9.22;80.92;98707.86;103420;1311;138914;-78
2023/01/01 02:37:17;;;;;;;16.90;10.10;;;;;;;9.28;80.65;98704.09;102545;1304;23995;-77
2023/01/01 02:39:54;;;;;;;17.40;9.50;;;;;;;9.34;80.36;98704.61;102231;1303;139015;-78
2023/01/01 02:42:24;;;;;;;18.70;9.70;;;;;;;9.40;80.07;98701.05;102859;1310;24231;-78
2023/01/01 02:44:53;;;;;;;17.50;9.50;;;;;;;9.43;80.00;98699.67;103481;1303;25263;-78
2023/01/01 02:47:19;;;;;;;;;;;;;;;9.45;79.83;98695.96;102286;1302;140186;-78
2023/01/01 02:50:08;;;;;;;17.10;8.90;;;;;;;9.45;79.80;98697.20;102912;1319;22524;-79
2023/01/01 02:52:55;;;;;;;21.10;10.80;;;;;;;9.45;79.58;98695.73;103644;1316;139695;-78
2023/01/01 02:55:43;;;;;;;16.60;8.50;;;;;;;9.45;79.58;98697.91;103955;1312;24089;-78
2023/01/01 03:01:29;;;;;;;14.40;9.00;;;;;;;9.48;79.43;98693.14;102410;1306;24017;-78
2023/01/01 03:03:55;;;;;;;;;;;;;;;9.50;79.32;98689.85;102660;1304;139024;-79
2023/01/01 03:06:36;;;;;;;15.00;8.70;;;;;;;9.51;79.15;98693.40;103079;1296;26632;-78
2023/01/01 03:09:02;;;;;;;20.40;10.50;;;;;;;9.52;79.02;98692.89;102936;1313;139705;-78
2023/01/01 03:11:59;;;;;;;18.90;10.40;;;;;;;9.52;78.78;98691.92;103269;1290;24340;-78
2023/01/01 03:14:44;;;;;;;18.50;10.70;;;;;;;9.53;78.70;98695.19;103204;1289;26118;-78
2023/01/01 03:17:25;;;;;;;21.00;10.50;;;;;;;9.52;78.56;98689.79;103280;1297;138504;-78
2023/01/01 03:19:54;;;;;;;18.20;10.10;;;;;;;9.53;78.60;98696.39;104335;1300;22230;-79
2023/01/01 03:22:26;;;;;;;16.60;9.30;;;;;;;9.53;78.67;98697.27;103357;1291;138605;-78
2023/01/01 03:25:07;;;;;;;16.30;9.00;;;;;;;9.54;78.35;98696.30;103101;1313;24316;-78
2023/01/01 03:27:53;;;;;;;17.50;9.00;;;;;;;9.56;78.22;98697.44;103003;1302;139314;-78
2023/01/01 03:30:20;;;;;;;15.10;9.20;;;;;;;9.57;78.13;98701.94;103033;1288;22500;-78
2023/01/01 03:32:59;;;;;;;17.30;8.90;;;;;;;9.59;77.98;98701.18;102990;1313;22617;-78
2023/01/01 03:35:34;;;;;;;20.50;9.80;;;;;;;9.62;77.58;98706.03;102990;1312;22589;-78
2023/01/01 03:38:03;;;;;;;14.30;9.20;;;;;;;9.66;77.67;98714.52;102978;1288;22505;-77
2023/01/01 03:40:36;;;;;;;11.60;6.80;;;;;;;9.69;77.38;98709.27;103252;1298;138410;-78
2023/01/01 03:43:12;;;;;;;11.70;6.70;;;;;;;9.73;76.99;98712.34;103141;1294;22476;-78
2023/01/01 03:45:43;;;;;;;11.80;5.40;;;;;;;9.78;77.10;98709.30;103241;1295;140132;-78
2023/01/01 03:48:10;;;;;;;11.30;5.20;;;;;;;9.83;76.70;98709.67;103040;1294;22525;-78
2023/01/01 03:50:43;;;;;;;9.40;5.40;;;;;;;9.87;76.96;98705.80;103147;1290;23870;-78
2023/01/01 03:53:23;;;;;;;9.00;4.50;;;;;;;9.90;76.43;98708.80;102884;1291;138677;-78
2023/01/01 03:56:04;;;;;;;7.70;4.30;;;;;;;9.93;76.11;98705.05;103647;1296;22556;-78
2023/01/01 03:58:38;;;;;;;8.70;4.20;;;;;;;9.96;76.32;98699.96;103966;1289;138070;-78
2023/01/01 04:01:17;;;;;;;6.60;4.30;;;;;;;10.00;76.20;98702.50;103136;1295;22515;-78
2023/01/01 04:03:43;;;;;;;6.80;4.40;;;;;;;10.03;76.31;98705.50;103379;1289;137682;-78
2023/01/01 04:06:11;;;;;;;8.30;4.30;;;;;;;10.03;76.04;98710.31;103393;1295;22482;-78
2023/01/01 04:08:37;;;;;;;6.20;4.00;;;;;;;10.03;75.65;98713.75;103260;1288;25350;-78
2023/01/01 04:13:56;;;;;;;8.00;4.00;;;;;;;10.04;75.40;98717.80;103165;1313;25569;-78
2023/01/01 04:16:22;;;;;;;6.00;4.10;;;;;;;10.03;75.08;98722.62;103698;1300;138600;-78
2023/01/01 04:18:50;;;;;;;6.60;4.60;;;;;;;10.02;74.83;98721.55;103119;1301;22515;-78
2023/01/01 04:21:16;;;;;;;9.80;4.70;;;;;;;10.00;74.35;98721.61;103223;1299;138789;-78
2023/01/01 04:23:42;;;;;;;6.80;4.10;;;;;;;9.98;74.41;98727.64;103285;1305;25350;-78
2023/01/01 04:26:13;;;;;;;6.00;3.40;;;;;;;9.95;74.12;98727.52;103398;1291;23334;-78
2023/01/01 04:28:41;;;;;;;6.40;4.00;;;;;;;9.92;74.07;98728.73;103239;1312;138838;-78
2023/01/01 04:31:08;;;;;;;8.40;4.30;;;;;;;9.90;74.28;98726.05;103244;1298;22552;-78
2023/01/01 04:33:34;;;;;;;9.60;4.80;;;;;;;9.89;74.06;98728.36;102994;1297;138807;-78
2023/01/01 04:36:06;;;;;;;6.70;4.30;;;;;;;9.89;74.04;98730.59;103320;1299;24314;-78
2023/01/01 04:38:34;;;;;;;5.60;3.80;;;;;;;9.90;73.93;98728.27;103395;1289;22621;-79
2023/01/01 04:41:01;;;;;;;7.80;4.20;;;;;;;9.91;74.10;98727.80;103278;1289;138088;-78
2023/01/01 04:43:28;;;;;;;8.50;5.30;;;;;;;9.92;74.36;98724.29;103062;1303;23909;-78
2023/01/01 04:45:59;;;;;;;6.10;4.60;;;;;;;9.92;74.08;98718.80;103397;1287;138431;-78
2023/01/01 04:48:27;;;;;;;7.80;5.20;;;;;;;9.90;73.64;98722.56;103170;1295;22478;-78
2023/01/01 04:50:58;;;;;;;12.20;6.30;;;;;;;9.92;73.31;98717.48;103555;1304;23393;-78
2023/01/01 04:53:27;;;;;;;10.90;5.50;;;;;;;9.93;73.50;98716.58;103695;1304;138257;-78
2023/01/01 04:55:53;;;;;;;8.60;5.20;;;;;;;9.92;73.12;98718.52;104067;1313;23236;-78
2023/01/01 04:58:19;;;;;;;9.10;5.40;;;;;;;9.91;73.08;98712.89;103127;1308;138903;-78
2023/01/01 05:00:50;;;;;;;9.90;5.80;;;;;;;9.90;73.42;98718.14;103133;1298;22486;-78
2023/01/01 05:03:17;;;;;;;8.90;5.80;;;;;;;9.88;73.32;98721.98;102952;1289;139040;-78
2023/01/01 05:05:43;;;;;;;9.90;5.60;;;;;;;9.87;73.52;98723.47;104021;1282;22482;-78
2023/01/01 05:08:09;;;;;;;11.00;5.60;;;;;;;9.88;73.37;98721.98;103459;1304;22893;-78
2023/01/01 05:10:35;;;;;;;9.90;5.70;;;;;;;9.93;73.63;98721.75;103362;1290;138889;-78
2023/01/01 05:13:06;;;;;;;8.60;5.50;;;;;;;9.96;73.42;98730.10;104183;1298;25285;-78
2023/01/01 05:15:35;;;;;;;9.50;5.60;;;;;;;10.00;73.40;98738.20;104066;1298;138524;-78
2023/01/01 05:18:01;;;;;;;11.50;6.40;;;;;;;10.03;73.41;98739.53;103642;1313;22060;-77
2023/01/01 05:20:27;;;;;;;8.80;5.30;;;;;;;10.07;73.22;98736.41;103532;1307;22606;-78
2023/01/01 05:22:53;;;;;;;9.90;5.30;;;;;;;10.10;73.18;98731.84;104532;1311;138318;-78
2023/01/01 05:25:19;;;;;;;8.90;5.50;;;;;;;10.12;73.33;98729.88;103209;1303;25726;-78
2023/01/01 05:27:45;;;;;;;9.90;5.50;;;;;;;10.11;73.27;98741.23;103116;1298;139504;-78
2023/01/01 05:30:12;;;;;;;9.80;5.70;;;;;;;10.10;72.87;98744.45;103206;1313;24296;-78
2023/01/01 05:32:38;;;;;;;8.90;5.40;;;;;;;10.09;73.18;98738.97;103146;1313;25775;-79
2023/01/01 05:35:04;;;;;;;9.30;5.90;;;;;;;10.08;73.27;98741.92;103360;1301;139107;-78
2023/01/01 05:37:30;;;;;;;9.10;6.10;;;;;;;10.08;73.23;98739.61;103303;1307;22473;-79
2023/01/01 05:39:57;;;;;;;13.60;7.80;;;;;;;10.06;73.14;98745.22;103279;1303;138905;-78
2023/01/01 05:42:23;;;;;;;12.70;7.70;;;;;;;9.99;73.25;98739.77;103431;1298;22492;-79
2023/01/01 05:44:49;;;;;;;11.60;7.50;;;;;;;9.94;73.46;98734.95;103143;1313;25274;-78
2023/01/01 05:47:17;;;;;;;12.10;7.80;;;;;;;9.87;73.78;98731.20;103609;1302;140221;-78
2023/01/01 05:49:43;;;;;;;14.10;8.20;;;;;;;9.79;73.68;98736.52;103255;1289;25383;-79
2023/01/01 05:52:09;;;;;;;12.10;7.60;;;;;;;9.68;73.78;98736.27;102972;1289;138597;-78
2023/01/01 05:54:35;;;;;;;14.70;8.30;;;;;;;9.59;74.21;98740.38;103152;1290;22516;-78
2023/01/01 05:57:01;;;;;;;12.80;8.20;;;;;;;9.50;74.34;98751.83;103315;1313;24397;-79
2023/01/01 05:59:28;;;;;;;12.30;8.00;;;;;;;9.43;74.56;98756.04;103179;1303;138114;-78
2023/01/01 06:01:54;;;;;;;12.90;6.60;;;;;;;9.39;74.81;98756.67;103051;1303;22509;-79
2023/01/01 06:04:20;;;;;;;11.50;6.70;;;;;;;9.37;74.97;98760.98;103325;1296;139143;-79
2023/01/01 06:06:46;;;;;;;12.80;7.50;;;;;;;9.35;75.16;98768.91;103195;1298;24467;-79
2023/01/01 06:09:12;;;;;;;15.70;8.00;;;;;;;9.33;75.11;98779.46;103054;1289;140047;-78
2023/01/01 06:11:38;;;;;;;13.20;6.80;;;;;;;9.32;75.17;98787.80;104198;1289;23757;-79
2023/01/01 06:14:05;;;;;;;10.00;5.80;;;;;;;9.31;74.84;98785.30;104784;1291;22319;-78
2023/01/01 06:16:31;;;;;;;8.90;6.20;;;;;;;9.37;75.21;98790.61;104567;1310;138311;-79
2023/01/01 06:18:58;;;;;;;13.00;6.30;;;;;;;9.44;75.13;98786.52;103954;1304;22478;-78
2023/01/01 06:21:26;;;;;;;10.10;6.20;;;;;;;9.53;75.21;98787.56;103732;1282;138438;-78
2023/01/01 06:23:54;;;;;;;9.30;6.00;;;;;;;9.61;75.05;98785.73;103172;1304;22464;-79
2023/01/01 06:26:23;;;;;;;10.30;6.30;;;;;;;9.70;74.97;98796.29;104241;1303;24298;-79
2023/01/01 06:28:50;;;;;;;12.00;6.60;;;;;;;9.77;74.48;98814.92;104040;1291;140012;-77
2023/01/01 06:31:19;;;;;;;13.60;8.50;;;;;;;9.82;74.18;98827.31;103732;1284;22468;-79
2023/01/01 06:33:46;;;;;;;12.10;7.90;;;;;;;9.84;73.82;98828.88;103597;1299;138422;-79
2023/01/01 06:36:15;;;;;;;12.80;7.90;;;;;;;9.84;73.57;98829.69;104966;1291;22159;-79
2023/01/01 06:38:45;;;;;;;12.90;8.10;;;;;;;9.85;73.67;98834.73;104615;1290;22516;-78
2023/01/01 06:41:17;;;;;;;13.90;8.90;;;;;;;9.85;73.43;98829.83;103619;1305;138277;-78
2023/01/01 06:43:44;;;;;;;14.50;9.70;;;;;;;9.83;73.73;98827.31;104352;1289;22508;-78
2023/01/01 06:46:16;;;;;;;14.60;9.30;;;;;;;9.77;73.68;98826.09;103277;1289;138830;-79
2023/01/01 06:48:43;;;;;;;14.80;8.60;;;;;;;9.72;73.80;98828.88;103186;1289;23904;-78
2023/01/01 06:51:21;;;;;;;15.80;9.90;;;;;;;9.65;73.80;98844.25;103972;1304;138352;-78
2023/01/01 06:53:48;;;;;;;18.10;9.90;;;;;;;9.58;73.90;98846.94;103847;1298;22503;-78
2023/01/01 06:56:15;;;;;;;15.80;10.40;;;;;;;9.53;74.05;98840.64;103650;1306;22553;-78
2023/01/01 06:58:42;;;;;;;14.20;8.20;;;;;;;9.49;74.14;98840.98;103414;1297;138557;-78
2023/01/01 07:01:13;;;;;;;13.70;8.90;;;;;;;9.45;74.43;98841.40;103358;1304;22503;-79
2023/01/01 07:03:40;;;;;;;14.90;8.80;;;;;;;9.44;74.65;98839.45;103591;1306;138846;-79
2023/01/01 07:06:07;;;;;;;14.90;7.80;;;;;;;9.43;74.62;98840.64;103257;1291;22487;-79
2023/01/01 07:08:34;;;;;;;12.70;7.70;;;;;;;9.43;74.83;98841.14;103682;1287;25360;-78
2023/01/01 07:11:01;;;;;;;12.80;7.10;;;;;;;9.45;74.95;98842.70;103472;1287;138738;-79
2023/01/01 07:13:29;;;;;;;12.80;7.20;;;;;;;9.49;74.98;98849.13;103301;1313;22198;-78
2023/01/01 07:15:55;;;;;;;13.10;7.30;;;;;;;9.53;74.81;98853.14;103134;1290;138855;-79
2023/01/01 07:18:23;;;;;;;13.10;8.30;;;;;;;9.54;74.77;98856.81;103044;1305;23648;-78
2023/01/01 07:20:55;;;;;;;14.50;8.50;;;;;;;9.55;74.87;98868.30;103065;1307;25486;-78
2023/01/01 07:23:22;;;;;;;12.60;8.00;;;;;;;9.54;74.83;98869.65;103424;1305;138384;-79
2023/01/01 07:25:50;;;;;;;13.10;7.90;;;;;;;9.54;74.63;98874.76;103203;1296;22824;-78
2023/01/01 07:28:16;;;;;;;14.00;9.10;;;;;;;9.53;75.03;98885.19;102985;1298;138260;-78
2023/01/01 07:30:42;;;;;;;14.60;9.00;;;;;;;9.52;75.13;98888.80;103239;1291;25208;-78
2023/01/01 07:33:14;;;;;;;16.10;9.70;;;;;;;9.51;74.92;98884.75;103178;1289;138640;-79
2023/01/01 07:35:40;;;;;;;16.40;9.70;;;;;;;9.48;75.10;98885.15;103637;1312;23457;-78
2023/01/01 07:38:07;;;;;;;17.50;9.70;;;;;;;9.46;75.13;98886.61;103335;1285;24439;-78
2023/01/01 07:40:33;;;;;;;15.60;9.90;;;;;;;9.44;75.10;98893.57;103022;1298;138295;-78
2023/01/01 07:42:59;;;;;;;15.60;9.80;;;;;;;9.42;75.30;98896.77;103275;1304;22515;-78
2023/01/01 07:45:25;;;;;;;16.00;9.30;;;;;;;9.40;75.49;98900.77;103750;1291;140810;-78
2023/01/01 07:47:54;;;;;;;17.20;9.30;;;;;;;9.37;75.42;98907.55;103180;1311;22604;-79
2023/01/01 07:50:22;;;;;;;15.90;9.80;;;;;;;9.35;75.52;98915.20;103433;1300;22546;-78
2023/01/01 07:52:48;;;;;;;16.50;9.40;;;;;;;9.34;75.81;98919.45;105178;1303;138976;-78
2023/01/01 07:55:16;;;;;;;17.70;9.70;;;;;;;9.31;75.77;98918.73;103895;1289;23315;-78
2023/01/01 07:57:44;;;;;;;16.60;8.90;;;;;;;9.29;75.85;98921.52;103644;1304;138424;-78
2023/01/01 08:00:13;;;;;;;15.90;9.20;;;;;;;9.28;75.98;98921.57;103419;1292;22357;-78
2023/01/01 08:02:39;;;;;;;15.90;8.80;;;;;;;9.28;76.10;98927.38;103482;1291;22513;-78
2023/01/01 08:05:06;;;;;;;15.80;9.20;;;;;;;9.28;75.96;98929.79;102933;1303;138553;-78
2023/01/01 08:07:33;;;;;;;17.00;9.40;;;;;;;9.31;75.99;98927.42;103049;1289;22480;-78
2023/01/01 08:09:59;;;;;;;18.30;10.40;;;;;;;9.34;76.18;98926.13;103780;1294;138808;-78
2023/01/01 08:12:25;;;;;;;16.80;9.00;;;;;;;9.37;75.86;98925.39;103120;1313;22486;-78
2023/01/01 08:14:52;;;;;;;18.00;9.50;;;;;;;9.42;75.84;98927.98;103565;1300;22540;-78
2023/01/01 08:17:18;;;;;;;17.00;9.70;;;;;;;9.48;75.92;98933.97;103011;1296;138689;-78
2023/01/01 08:19:45;;;;;;;19.80;11.30;;;;;;;9.53;75.60;98937.77;103577;1311;23111;-78
2023/01/01 08:22:11;;;;;;;20.70;10.70;;;;;;;9.58;75.70;98942.60;103255;1289;139301;-78
2023/01/01 08:24:38;;;;;;;18.30;9.80;;;;;;;9.63;75.59;98942.30;103202;1298;25380;-78
2023/01/01 08:27:04;;;;;;;16.70;10.10;;;;;;;9.67;75.55;98938.98;103184;1298;22600;-78
2023/01/01 08:29:30;;;;;;;14.00;8.60;;;;;;;9.69;75.37;98942.76;102971;1291;138254;-78
2023/01/01 08:31:56;;;;;;;14.50;8.90;;;;;;;9.72;75.34;98940.59;103216;1289;25296;-78
2023/01/01 08:34:22;;;;;;;20.20;9.60;;;;;;;9.75;75.41;98947.64;103030;1289;138750;-78
2023/01/01 08:36:48;;;;;;;15.30;8.50;;;;;;;9.77;75.42;98951.40;103280;1312;22518;-78
2023/01/01 08:39:15;;;;;;;15.40;8.70;;;;;;;9.79;75.32;98955.13;103275;1288;138655;-77
2023/01/01 08:41:42;;;;;;;14.20;9.30;;;;;;;9.84;75.24;98959.27;103349;1289;22651;-78
2023/01/01 08:44:08;;;;;;;14.80;10.00;;;;;;;9.88;75.61;98970.11;103556;1290;22514;-78
2023/01/01 08:46:34;;;;;;;14.60;8.30;;;;;;;9.92;75.43;98969.08;103163;1288;139329;-78
2023/01/01 08:49:01;;;;;;;12.90;8.20;;;;;;;9.96;75.04;98971.20;103118;1291;25258;-78
2023/01/01 08:51:29;;;;;;;14.20;8.60;;;;;;;9.99;75.31;98973.54;103130;1313;138918;-78
2023/01/01 08:53:55;;;;;;;14.40;7.90;;;;;;;10.03;75.05;98983.11;103107;1289;22501;-78
2023/01/01 08:56:21;;;;;;;15.70;9.20;;;;;;;10.06;75.31;98982.16;103168;1288;24263;-78
2023/01/01 08:58:48;;;;;;;13.40;8.10;;;;;;;10.09;75.15;98979.30;102951;1290;139288;-78
2023/01/01 09:01:14;;;;;;;13.80;8.40;;;;;;;10.13;74.97;98979.73;104650;1288;24382;-79
2023/01/01 09:03:41;;;;;;;12.70;8.10;;;;;;;10.15;74.97;98985.02;103868;1301;138593;-78
2023/01/01 09:06:07;;;;;;;12.10;8.20;;;;;;;10.18;74.71;98985.10;103371;1307;22189;-78
2023/01/01 09:08:33;;;;;;;12.90;8.50;;;;;;;10.20;74.57;98981.57;105986;1288;22731;-79
2023/01/01 09:11:01;;;;;;;12.40;8.50;;;;;;;10.22;74.73;98988.23;104013;1297;138531;-78
2023/01/01 09:13:28;;;;;;;17.80;9.10;;;;;;;10.25;75.06;98993.52;104146;1304;22399;-79
2023/01/01 09:15:55;;;;;;;15.50;9.40;;;;;;;10.25;74.86;98990.16;104178;1300;138832;-78
2023/01/01 09:18:21;;;;;;;15.90;9.00;;;;;;;10.25;74.98;98989.11;103742;1289;24255;-78
2023/01/01 09:20:48;;;;;;;16.30;10.00;;;;;;;10.24;75.12;98982.89;103335;1304;25377;-78
2023/01/01 09:23:14;;;;;;;17.10;10.30;;;;;;;10.22;74.87;98985.39;103107;1298;139316;-78
2023/01/01 09:25:41;;;;;;;13.70;9.30;;;;;;;10.20;74.72;98982.83;103409;1305;23876;-78
2023/01/01 09:28:11;;;;;;;19.50;9.80;;;;;;;10.19;74.80;98986.17;103173;1281;139909;-78
2023/01/01 09:30:37;;;;;;;16.00;9.30;;;;;;;10.18;74.90;98984.23;103139;1297;23053;-78
2023/01/01 09:33:03;;;;;;;16.40;9.60;;;;;;;10.17;75.10;98973.31;103938;1289;22500;-78
2023/01/01 09:35:30;;;;;;;15.40;8.20;;;;;;;10.15;74.84;98973.00;103919;1305;138427;-79
2023/01/01 09:37:56;;;;;;;14.70;7.90;;;;;;;10.16;74.96;98971.64;103806;1298;22228;-78
2023/01/01 09:40:32;;;;;;;14.20;7.80;;;;;;;10.17;75.38;98963.67;103290;1281;138631;-78
2023/01/01 09:43:21;;;;;;;11.80;7.90;;;;;;;10.19;75.01;98964.20;104074;1296;24283;-78
2023/01/01 09:45:56;;;;;;;16.00;8.00;;;;;;;10.24;74.94;98964.46;103169;1289;139363;-78
2023/01/01 09:48:25;;;;;;;13.30;8.90;;;;;;;10.30;75.09;98966.06;103211;1305;25450;-78
2023/01/01 09:50:52;;;;;;;16.10;9.90;;;;;;;10.37;75.16;98973.84;103308;1288;24234;-78
2023/01/01 09:53:33;;;;;;;16.40;10.70;;;;;;;10.42;74.88;98975.19;103077;1294;138422;-78
2023/01/01 09:56:01;;;;;;;19.10;10.60;;;;;;;10.47;74.83;98973.77;103448;1291;22513;-78
2023/01/01 09:58:37;;;;;;;16.90;9.90;;;;;;;10.50;75.19;98971.35;103302;1304;138734;-78
2023/01/01 10:01:15;;;;;;;16.20;9.40;;;;;;;10.55;74.53;98970.39;103671;1287;22490;-78
2023/01/01 10:04:00;;;;;;;18.10;10.60;;;;;;;10.59;74.34;98968.82;103282;1287;138679;-78
2023/01/01 10:06:32;;;;;;;17.00;10.20;;;;;;;10.64;74.33;98969.29;103145;1298;25308;-78
2023/01/01 10:09:10;;;;;;;17.90;10.50;;;;;;;10.70;74.33;98969.36;103202;1313;22485;-78
2023/01/01 10:11:52;;;;;;;15.30;9.40;;;;;;;10.75;73.89;98962.02;103883;1297;138383;-78
2023/01/01 10:14:35;;;;;;;18.10;10.00;;;;;;;10.81;74.01;98949.88;104012;1288;25039;-78
2023/01/01 10:17:09;;;;;;;16.40;10.10;;;;;;;10.87;73.97;98941.56;104155;1290;140410;-78
2023/01/01 10:19:49;;;;;;;16.50;9.40;;;;;;;10.93;73.85;98938.23;104561;1304;22291;-79
2023/01/01 10:22:24;;;;;;;18.30;10.00;;;;;;;10.99;73.53;98936.45;104411;1297;140091;-79
2023/01/01 10:25:06;;;;;;;17.10;9.90;;;;;;;11.05;73.55;98933.88;104757;1285;23183;-79
2023/01/01 10:27:43;;;;;;;16.90;10.00;;;;;;;11.10;73.01;98925.45;103762;1297;138677;-78
2023/01/01 10:30:22;;;;;;;11.60;8.40;;;;;;;11.15;72.45;98938.27;104142;1288;25014;-78
2023/01/01 10:32:53;;;;;;;16.70;10.00;;;;;;;11.20;71.98;98943.39;103257;1301;22480;-78
2023/01/01 10:35:31;;;;;;;17.30;9.10;;;;;;;11.26;72.06;98944.71;104303;1292;140162;-79
2023/01/01 10:37:58;;;;;;;19.00;10.20;;;;;;;11.32;71.68;98948.29;105105;1287;22267;-79
2023/01/01 10:40:27;;;;;;;18.10;10.30;;;;;;;11.37;71.73;98942.65;103322;1301;140036;-79
2023/01/01 10:42:56;;;;;;;25.10;14.60;;;;;;;11.43;71.57;98942.21;104661;1290;22960;-79
2023/01/01 10:45:31;;;;;;;20.80;12.80;;;;;;;11.49;71.69;98937.86;105568;1291;138747;-79
2023/01/01 10:48:22;;;;;;;19.70;12.70;;;;;;;11.54;71.43;98932.15;105682;1288;22179;-79
2023/01/01 10:50:55;;;;;;;19.20;10.80;;;;;;;11.60;71.24;98934.29;105131;1288;22198;-78
2023/01/01 10:53:32;;;;;;;18.80;11.20;;;;;;;11.66;71.30;98936.55;104895;1281;138711;-77
2023/01/01 10:56:03;;;;;;;18.20;11.80;;;;;;;11.72;70.87;98934.38;105199;1288;23750;-78
2023/01/01 10:58:54;;;;;;;19.10;11.90;;;;;;;11.77;70.83;98929.46;105484;1292;139171;-78
2023/01/01 11:01:28;;;;;;;20.10;12.30;;;;;;;11.84;70.79;98919.09;104793;1291;22503;-78
2023/01/01 11:03:58;;;;;;;20.60;12.30;;;;;;;11.89;70.89;98926.79;103840;1282;140557;-78
2023/01/01 11:06:37;;;;;;;19.90;12.80;;;;;;;11.95;70.70;98914.92;103358;1291;25273;-78
2023/01/01 11:09:06;;;;;;;18.10;11.20;;;;;;;12.03;70.69;98911.29;103672;1306;23960;-78
2023/01/01 11:11:43;;;;;;;17.00;10.80;;;;;;;12.10;70.61;98915.58;103126;1291;139005;-78
2023/01/01 11:14:33;;;;;;;20.00;11.50;;;;;;;12.17;70.43;98913.10;103494;1297;24300;-78
2023/01/01 11:17:00;;;;;;;19.10;10.70;;;;;;;12.25;70.19;98903.81;104528;1289;140076;-78
2023/01/01 11:19:38;;;;;;;18.50;10.90;;;;;;;12.33;70.09;98894.38;104383;1299;22605;-78
2023/01/01 11:22:05;;;;;;;19.00;11.20;;;;;;;12.43;70.09;98897.40;103928;1298;138599;-78
2023/01/01 11:24:33;;;;;;;20.50;11.80;;;;;;;12.51;70.06;98889.33;104606;1287;23931;-78
2023/01/01 11:27:22;;;;;;;20.10;11.40;;;;;;;12.61;69.80;98886.99;105672;1288;22874;-79
2023/01/01 11:29:50;;;;;;;;;;;;;;;12.72;69.52;98887.94;104945;1291;22430;-78
2023/01/01 11:32:33;;;;;;;18.10;9.70;;;;;;;12.81;69.23;98885.84;106470;1306;22247;-78
2023/01/01 11:35:05;;;;;;;20.50;11.50;;;;;;;12.90;68.73;98888.23;106120;1308;140704;-78
2023/01/01 11:37:37;;;;;;;15.30;9.30;;;;;;;13.00;68.46;98891.73;106547;1287;22196;-78
2023/01/01 11:40:15;;;;;;;15.40;9.00;;;;;;;13.11;68.19;98890.30;106521;1289;139209;-78
2023/01/01 11:42:47;;;;;;;18.00;8.70;;;;;;;13.20;67.62;98889.66;106663;1291;22378;-79